sensor_id;sensor_type;location;lat;lon;timestamp;temperature;humidity
25346;DHT22;13300;51.032;3.710;2024-03-23T00:55:41;8.90;99.90
25346;DHT22;13300;51.032;3.710;2024-03-23T00:58:06;9.10;99.90
25346;DHT22;13300;51.032;3.710;2024-03-23T01:00:32;9.10;99.90
25346;DHT22;13300;51.032;3.710;2024-03-23T01:02:58;9.10;99.90
25346;DHT22;13300;51.032;3.710;2024-03-23T01:05:23;9.00;99.90
25346;DHT22;13300;51.032;3.710;2024-03-23T01:07:49;9.10;99.90
25346;DHT22;13300;51.032;3.710;2024-03-23T01:10:15;9.10;99.90
25346;DHT22;13300;51.032;3.710;2024-03-23T01:12:40;9.20;99.90
25346;DHT22;13300;51.032;3.710;2024-03-23T01:15:06;9.30;99.90
25346;DHT22;13300;51.032;3.710;2024-03-23T01:17:32;9.20;99.90
25346;DHT22;13300;51.032;3.710;2024-03-23T01:19:58;9.30;99.90
25346;DHT22;13300;51.032;3.710;2024-03-23T01:22:23;9.30;99.90
25346;DHT22;13300;51.032;3.710;2024-03-23T01:24:49;9.30;99.90
25346;DHT22;13300;51.032;3.710;2024-03-23T01:27:15;9.30;99.90
25346;DHT22;13300;51.032;3.710;2024-03-23T01:29:40;9.30;99.90
25346;DHT22;13300;51.032;3.710;2024-03-23T01:32:06;9.20;99.90
25346;DHT22;13300;51.032;3.710;2024-03-23T01:34:32;9.20;99.90
25346;DHT22;13300;51.032;3.710;2024-03-23T01:36:58;9.10;99.90
25346;DHT22;13300;51.032;3.710;2024-03-23T01:39:24;9.10;99.90
25346;DHT22;13300;51.032;3.710;2024-03-23T01:41:50;9.00;99.90
25346;DHT22;13300;51.032;3.710;2024-03-23T01:44:16;8.90;99.90
25346;DHT22;13300;51.032;3.710;2024-03-23T01:46:43;8.90;99.90
25346;DHT22;13300;51.032;3.710;2024-03-23T01:49:09;8.80;99.90
25346;DHT22;13300;51.032;3.710;2024-03-23T01:51:35;8.70;99.90
25346;DHT22;13300;51.032;3.710;2024-03-23T01:54:04;8.70;99.90
25346;DHT22;13300;51.032;3.710;2024-03-23T01:56:35;8.70;99.90
25346;DHT22;13300;51.032;3.710;2024-03-23T01:59:04;8.70;99.90
25346;DHT22;13300;51.032;3.710;2024-03-23T02:01:39;8.70;99.90
25346;DHT22;13300;51.032;3.710;2024-03-23T02:04:05;8.70;99.90
25346;DHT22;13300;51.032;3.710;2024-03-23T02:06:31;8.70;99.90
25346;DHT22;13300;51.032;3.710;2024-03-23T02:08:56;8.60;99.90
25346;DHT22;13300;51.032;3.710;2024-03-23T02:11:23;8.80;99.90
25346;DHT22;13300;51.032;3.710;2024-03-23T02:13:48;8.70;99.90
25346;DHT22;13300;51.032;3.710;2024-03-23T02:16:14;8.70;99.90
25346;DHT22;13300;51.032;3.710;2024-03-23T02:18:40;8.80;99.90
25346;DHT22;13300;51.032;3.710;2024-03-23T02:21:05;8.80;99.90
25346;DHT22;13300;51.032;3.710;2024-03-23T02:23:31;8.70;99.90
25346;DHT22;13300;51.032;3.710;2024-03-23T02:25:57;8.70;99.90
25346;DHT22;13300;51.032;3.710;2024-03-23T02:28:23;8.70;99.90
25346;DHT22;13300;51.032;3.710;2024-03-23T02:30:52;8.70;99.90
25346;DHT22;13300;51.032;3.710;2024-03-23T02:33:17;8.70;99.90
25346;DHT22;13300;51.032;3.710;2024-03-23T02:35:44;8.90;99.90
25346;DHT22;13300;51.032;3.710;2024-03-23T02:38:10;8.80;99.90
25346;DHT22;13300;51.032;3.710;2024-03-23T02:40:36;8.80;99.90
25346;DHT22;13300;51.032;3.710;2024-03-23T02:43:03;8.80;99.90
25346;DHT22;13300;51.032;3.710;2024-03-23T02:45:28;8.80;99.90
25346;DHT22;13300;51.032;3.710;2024-03-23T02:47:54;8.80;99.90
25346;DHT22;13300;51.032;3.710;2024-03-23T02:50:21;8.70;99.90
25346;DHT22;13300;51.032;3.710;2024-03-23T02:52:47;8.70;99.90
25346;DHT22;13300;51.032;3.710;2024-03-23T02:55:13;8.70;99.90
25346;DHT22;13300;51.032;3.710;2024-03-23T02:57:39;8.70;99.90
25346;DHT22;13300;51.032;3.710;2024-03-23T03:00:05;8.70;99.90
25346;DHT22;13300;51.032;3.710;2024-03-23T03:02:32;8.60;99.90
25346;DHT22;13300;51.032;3.710;2024-03-23T03:04:58;8.60;99.90
25346;DHT22;13300;51.032;3.710;2024-03-23T03:07:24;8.60;99.90
25346;DHT22;13300;51.032;3.710;2024-03-23T03:09:49;8.50;99.90
25346;DHT22;13300;51.032;3.710;2024-03-23T03:12:15;8.50;99.90
25346;DHT22;13300;51.032;3.710;2024-03-23T03:14:41;8.40;99.90
25346;DHT22;13300;51.032;3.710;2024-03-23T03:17:06;8.30;99.90
25346;DHT22;13300;51.032;3.710;2024-03-23T03:19:32;8.30;99.90
25346;DHT22;13300;51.032;3.710;2024-03-23T03:21:58;8.20;99.90
25346;DHT22;13300;51.032;3.710;2024-03-23T03:24:23;8.20;99.90
25346;DHT22;13300;51.032;3.710;2024-03-23T03:26:49;8.10;99.90
25346;DHT22;13300;51.032;3.710;2024-03-23T03:29:15;8.00;99.90
25346;DHT22;13300;51.032;3.710;2024-03-23T03:31:42;8.00;99.90
25346;DHT22;13300;51.032;3.710;2024-03-23T03:34:08;8.00;99.90
25346;DHT22;13300;51.032;3.710;2024-03-23T03:36:33;7.90;99.90
25346;DHT22;13300;51.032;3.710;2024-03-23T03:38:59;7.90;99.90
25346;DHT22;13300;51.032;3.710;2024-03-23T03:41:25;8.00;99.90
25346;DHT22;13300;51.032;3.710;2024-03-23T03:43:51;7.90;99.90
25346;DHT22;13300;51.032;3.710;2024-03-23T03:46:17;8.00;99.90
25346;DHT22;13300;51.032;3.710;2024-03-23T03:48:42;8.00;99.90
25346;DHT22;13300;51.032;3.710;2024-03-23T03:51:10;7.90;99.90
25346;DHT22;13300;51.032;3.710;2024-03-23T03:53:36;7.90;99.90
25346;DHT22;13300;51.032;3.710;2024-03-23T03:56:02;7.90;99.90
25346;DHT22;13300;51.032;3.710;2024-03-23T03:58:27;7.70;99.90
25346;DHT22;13300;51.032;3.710;2024-03-23T04:00:53;7.60;99.90
25346;DHT22;13300;51.032;3.710;2024-03-23T04:03:19;7.70;99.90
25346;DHT22;13300;51.032;3.710;2024-03-23T04:05:53;7.80;99.90
25346;DHT22;13300;51.032;3.710;2024-03-23T04:08:19;7.70;99.90
25346;DHT22;13300;51.032;3.710;2024-03-23T04:10:45;7.80;99.90
25346;DHT22;13300;51.032;3.710;2024-03-23T04:13:12;7.80;99.90
25346;DHT22;13300;51.032;3.710;2024-03-23T04:15:38;7.80;99.90
25346;DHT22;13300;51.032;3.710;2024-03-23T04:18:04;7.90;99.90
25346;DHT22;13300;51.032;3.710;2024-03-23T04:20:30;7.80;99.90
25346;DHT22;13300;51.032;3.710;2024-03-23T04:22:55;7.80;99.90
25346;DHT22;13300;51.032;3.710;2024-03-23T04:25:21;7.90;99.90
25346;DHT22;13300;51.032;3.710;2024-03-23T04:27:46;7.90;99.90
25346;DHT22;13300;51.032;3.710;2024-03-23T04:30:12;8.00;99.90
25346;DHT22;13300;51.032;3.710;2024-03-23T04:32:38;8.00;99.90
25346;DHT22;13300;51.032;3.710;2024-03-23T04:35:04;7.90;99.90
25346;DHT22;13300;51.032;3.710;2024-03-23T04:37:39;8.00;99.90
25346;DHT22;13300;51.032;3.710;2024-03-23T04:40:08;8.00;99.90
25346;DHT22;13300;51.032;3.710;2024-03-23T04:42:34;7.90;99.90
25346;DHT22;13300;51.032;3.710;2024-03-23T04:45:00;7.80;99.90
25346;DHT22;13300;51.032;3.710;2024-03-23T04:47:26;7.80;99.90
25346;DHT22;13300;51.032;3.710;2024-03-23T04:49:52;7.80;99.90
25346;DHT22;13300;51.032;3.710;2024-03-23T04:52:18;7.70;99.90
25346;DHT22;13300;51.032;3.710;2024-03-23T04:54:43;7.70;99.90
25346;DHT22;13300;51.032;3.710;2024-03-23T04:57:10;7.50;99.90
25346;DHT22;13300;51.032;3.710;2024-03-23T04:59:36;7.50;99.90
25346;DHT22;13300;51.032;3.710;2024-03-23T05:02:02;7.50;99.90
25346;DHT22;13300;51.032;3.710;2024-03-23T05:04:28;7.70;99.90
25346;DHT22;13300;51.032;3.710;2024-03-23T05:06:54;7.70;99.90
25346;DHT22;13300;51.032;3.710;2024-03-23T05:09:19;7.80;99.90
25346;DHT22;13300;51.032;3.710;2024-03-23T05:11:45;7.90;99.90
25346;DHT22;13300;51.032;3.710;2024-03-23T05:14:13;7.90;99.90
25346;DHT22;13300;51.032;3.710;2024-03-23T05:16:39;8.00;99.90
25346;DHT22;13300;51.032;3.710;2024-03-23T05:19:04;8.00;99.90
25346;DHT22;13300;51.032;3.710;2024-03-23T05:21:30;8.00;99.90
25346;DHT22;13300;51.032;3.710;2024-03-23T05:23:56;7.90;99.90
25346;DHT22;13300;51.032;3.710;2024-03-23T05:26:24;7.90;99.90
25346;DHT22;13300;51.032;3.710;2024-03-23T05:28:50;7.80;99.90
25346;DHT22;13300;51.032;3.710;2024-03-23T05:31:26;7.80;99.90
25346;DHT22;13300;51.032;3.710;2024-03-23T05:33:52;7.80;99.90
25346;DHT22;13300;51.032;3.710;2024-03-23T05:36:18;7.80;99.90
25346;DHT22;13300;51.032;3.710;2024-03-23T05:38:43;7.90;99.90
25346;DHT22;13300;51.032;3.710;2024-03-23T05:41:09;7.90;99.90
25346;DHT22;13300;51.032;3.710;2024-03-23T05:43:35;7.80;99.90
25346;DHT22;13300;51.032;3.710;2024-03-23T05:46:01;7.90;99.90
25346;DHT22;13300;51.032;3.710;2024-03-23T05:48:33;7.90;99.90
25346;DHT22;13300;51.032;3.710;2024-03-23T05:50:59;8.00;99.90
25346;DHT22;13300;51.032;3.710;2024-03-23T05:53:25;8.00;99.90
25346;DHT22;13300;51.032;3.710;2024-03-23T05:55:51;8.00;99.90
25346;DHT22;13300;51.032;3.710;2024-03-23T05:58:19;8.00;99.90
25346;DHT22;13300;51.032;3.710;2024-03-23T06:00:48;8.00;99.90
25346;DHT22;13300;51.032;3.710;2024-03-23T06:03:13;8.20;99.90
25346;DHT22;13300;51.032;3.710;2024-03-23T06:05:39;8.20;99.90
25346;DHT22;13300;51.032;3.710;2024-03-23T06:08:05;8.30;99.90
25346;DHT22;13300;51.032;3.710;2024-03-23T06:10:33;8.20;99.90
25346;DHT22;13300;51.032;3.710;2024-03-23T06:12:58;8.10;99.90
25346;DHT22;13300;51.032;3.710;2024-03-23T06:15:25;8.10;99.90
25346;DHT22;13300;51.032;3.710;2024-03-23T06:17:50;8.00;99.90
25346;DHT22;13300;51.032;3.710;2024-03-23T06:20:16;7.90;99.90
25346;DHT22;13300;51.032;3.710;2024-03-23T06:22:42;8.00;99.90
25346;DHT22;13300;51.032;3.710;2024-03-23T06:25:08;8.00;99.90
25346;DHT22;13300;51.032;3.710;2024-03-23T06:27:34;7.80;99.90
25346;DHT22;13300;51.032;3.710;2024-03-23T06:30:00;7.80;99.90
25346;DHT22;13300;51.032;3.710;2024-03-23T06:32:27;7.80;99.90
25346;DHT22;13300;51.032;3.710;2024-03-23T06:34:52;7.80;99.90
25346;DHT22;13300;51.032;3.710;2024-03-23T06:37:18;7.80;99.90
25346;DHT22;13300;51.032;3.710;2024-03-23T06:39:46;7.70;99.90
25346;DHT22;13300;51.032;3.710;2024-03-23T06:42:12;7.80;99.90
25346;DHT22;13300;51.032;3.710;2024-03-23T06:44:37;7.80;99.90
25346;DHT22;13300;51.032;3.710;2024-03-23T06:47:03;8.10;99.90
25346;DHT22;13300;51.032;3.710;2024-03-23T06:49:29;8.10;99.90
25346;DHT22;13300;51.032;3.710;2024-03-23T06:51:54;8.50;99.90
25346;DHT22;13300;51.032;3.710;2024-03-23T06:54:20;9.00;99.90
25346;DHT22;13300;51.032;3.710;2024-03-23T06:56:46;9.70;99.90
25346;DHT22;13300;51.032;3.710;2024-03-23T06:59:12;9.90;99.90
25346;DHT22;13300;51.032;3.710;2024-03-23T07:01:37;9.80;99.90
25346;DHT22;13300;51.032;3.710;2024-03-23T07:04:04;10.10;99.90
25346;DHT22;13300;51.032;3.710;2024-03-23T07:06:30;10.60;99.90
25346;DHT22;13300;51.032;3.710;2024-03-23T07:08:56;11.30;99.90
25346;DHT22;13300;51.032;3.710;2024-03-23T07:11:22;11.50;99.90
25346;DHT22;13300;51.032;3.710;2024-03-23T07:13:52;11.80;99.90
25346;DHT22;13300;51.032;3.710;2024-03-23T07:16:20;12.30;99.90
25346;DHT22;13300;51.032;3.710;2024-03-23T07:18:46;12.30;99.90
25346;DHT22;13300;51.032;3.710;2024-03-23T07:21:11;11.90;99.90
25346;DHT22;13300;51.032;3.710;2024-03-23T07:23:37;11.60;99.90
25346;DHT22;13300;51.032;3.710;2024-03-23T07:26:04;11.70;99.90
25346;DHT22;13300;51.032;3.710;2024-03-23T07:28:31;12.00;99.90
25346;DHT22;13300;51.032;3.710;2024-03-23T07:31:09;12.70;99.90
25346;DHT22;13300;51.032;3.710;2024-03-23T07:33:36;12.90;99.90
25346;DHT22;13300;51.032;3.710;2024-03-23T07:36:02;12.70;99.90
25346;DHT22;13300;51.032;3.710;2024-03-23T07:38:29;12.90;99.90
25346;DHT22;13300;51.032;3.710;2024-03-23T07:41:09;13.40;99.90
25346;DHT22;13300;51.032;3.710;2024-03-23T07:43:35;12.80;99.90
25346;DHT22;13300;51.032;3.710;2024-03-23T07:46:01;12.30;99.90
25346;DHT22;13300;51.032;3.710;2024-03-23T07:48:29;11.90;99.90
25346;DHT22;13300;51.032;3.710;2024-03-23T07:53:27;11.40;99.90
25346;DHT22;13300;51.032;3.710;2024-03-23T07:55:57;12.00;99.90
25346;DHT22;13300;51.032;3.710;2024-03-23T07:58:23;13.10;99.90
25346;DHT22;13300;51.032;3.710;2024-03-23T08:00:49;14.40;99.90
25346;DHT22;13300;51.032;3.710;2024-03-23T08:03:15;15.30;99.90
25346;DHT22;13300;51.032;3.710;2024-03-23T08:05:40;15.70;99.90
25346;DHT22;13300;51.032;3.710;2024-03-23T08:08:06;16.60;99.90
25346;DHT22;13300;51.032;3.710;2024-03-23T08:10:33;17.00;99.90
25346;DHT22;13300;51.032;3.710;2024-03-23T08:12:59;17.30;99.90
25346;DHT22;13300;51.032;3.710;2024-03-23T08:15:25;17.50;99.90
25346;DHT22;13300;51.032;3.710;2024-03-23T08:17:50;17.70;99.90
25346;DHT22;13300;51.032;3.710;2024-03-23T08:20:16;18.20;99.90
25346;DHT22;13300;51.032;3.710;2024-03-23T08:22:42;18.40;99.90
25346;DHT22;13300;51.032;3.710;2024-03-23T08:25:08;18.80;99.90
25346;DHT22;13300;51.032;3.710;2024-03-23T08:27:33;19.10;99.90
25346;DHT22;13300;51.032;3.710;2024-03-23T08:29:59;18.80;99.90
25346;DHT22;13300;51.032;3.710;2024-03-23T08:32:25;18.40;99.90
25346;DHT22;13300;51.032;3.710;2024-03-23T08:34:50;18.30;99.90
25346;DHT22;13300;51.032;3.710;2024-03-23T08:37:16;17.70;99.90
25346;DHT22;13300;51.032;3.710;2024-03-23T08:39:45;16.30;99.90
25346;DHT22;13300;51.032;3.710;2024-03-23T08:42:10;15.60;99.90
25346;DHT22;13300;51.032;3.710;2024-03-23T08:44:36;15.80;99.90
25346;DHT22;13300;51.032;3.710;2024-03-23T08:47:02;15.80;99.90
25346;DHT22;13300;51.032;3.710;2024-03-23T08:49:28;16.60;99.90
25346;DHT22;13300;51.032;3.710;2024-03-23T08:51:54;17.60;99.90
25346;DHT22;13300;51.032;3.710;2024-03-23T08:54:20;17.80;99.90
25346;DHT22;13300;51.032;3.710;2024-03-23T08:56:47;17.50;99.90
25346;DHT22;13300;51.032;3.710;2024-03-23T08:59:13;17.30;99.90
25346;DHT22;13300;51.032;3.710;2024-03-23T09:01:38;17.30;99.90
25346;DHT22;13300;51.032;3.710;2024-03-23T09:04:04;17.60;99.90
25346;DHT22;13300;51.032;3.710;2024-03-23T09:06:30;17.40;99.90
25346;DHT22;13300;51.032;3.710;2024-03-23T09:08:56;17.00;99.90
25346;DHT22;13300;51.032;3.710;2024-03-23T09:11:22;16.40;99.90
25346;DHT22;13300;51.032;3.710;2024-03-23T09:13:47;15.90;99.90
25346;DHT22;13300;51.032;3.710;2024-03-23T09:16:13;15.50;99.90
25346;DHT22;13300;51.032;3.710;2024-03-23T09:18:39;15.50;99.90
25346;DHT22;13300;51.032;3.710;2024-03-23T09:21:12;15.00;99.90
25346;DHT22;13300;51.032;3.710;2024-03-23T09:23:45;14.70;99.90
25346;DHT22;13300;51.032;3.710;2024-03-23T09:26:10;14.30;99.90
25346;DHT22;13300;51.032;3.710;2024-03-23T09:28:36;14.00;99.90
25346;DHT22;13300;51.032;3.710;2024-03-23T09:31:06;13.70;99.90
25346;DHT22;13300;51.032;3.710;2024-03-23T09:33:33;14.70;99.90
25346;DHT22;13300;51.032;3.710;2024-03-23T09:36:03;15.40;99.90
25346;DHT22;13300;51.032;3.710;2024-03-23T09:38:29;16.70;99.90
25346;DHT22;13300;51.032;3.710;2024-03-23T09:40:55;17.30;99.90
25346;DHT22;13300;51.032;3.710;2024-03-23T09:43:21;16.30;99.90
25346;DHT22;13300;51.032;3.710;2024-03-23T09:45:47;14.90;99.90
25346;DHT22;13300;51.032;3.710;2024-03-23T09:48:13;13.90;99.90
25346;DHT22;13300;51.032;3.710;2024-03-23T09:50:39;12.90;99.90
25346;DHT22;13300;51.032;3.710;2024-03-23T09:53:09;13.10;99.90
25346;DHT22;13300;51.032;3.710;2024-03-23T09:55:37;15.00;99.90
25346;DHT22;13300;51.032;3.710;2024-03-23T09:58:03;15.60;99.90
25346;DHT22;13300;51.032;3.710;2024-03-23T10:00:31;15.10;99.90
25346;DHT22;13300;51.032;3.710;2024-03-23T10:02:58;14.20;99.90
25346;DHT22;13300;51.032;3.710;2024-03-23T10:05:28;13.50;99.90
25346;DHT22;13300;51.032;3.710;2024-03-23T10:07:54;12.70;99.90
25346;DHT22;13300;51.032;3.710;2024-03-23T10:10:20;12.30;99.90
25346;DHT22;13300;51.032;3.710;2024-03-23T10:12:48;11.90;99.90
25346;DHT22;13300;51.032;3.710;2024-03-23T10:15:21;12.00;99.90
25346;DHT22;13300;51.032;3.710;2024-03-23T10:17:47;12.30;99.90
25346;DHT22;13300;51.032;3.710;2024-03-23T10:20:14;12.90;99.90
25346;DHT22;13300;51.032;3.710;2024-03-23T10:22:44;14.60;99.90
25346;DHT22;13300;51.032;3.710;2024-03-23T10:25:11;16.70;99.90
25346;DHT22;13300;51.032;3.710;2024-03-23T10:27:39;18.60;99.90
25346;DHT22;13300;51.032;3.710;2024-03-23T10:30:13;20.10;99.90
25346;DHT22;13300;51.032;3.710;2024-03-23T10:32:40;21.60;99.90
25346;DHT22;13300;51.032;3.710;2024-03-23T10:35:19;22.50;99.90
25346;DHT22;13300;51.032;3.710;2024-03-23T10:37:47;23.00;97.20
25346;DHT22;13300;51.032;3.710;2024-03-23T10:40:15;20.70;98.30
25346;DHT22;13300;51.032;3.710;2024-03-23T10:42:41;20.00;99.60
25346;DHT22;13300;51.032;3.710;2024-03-23T10:45:07;20.30;98.10
25346;DHT22;13300;51.032;3.710;2024-03-23T10:47:35;21.10;97.80
25346;DHT22;13300;51.032;3.710;2024-03-23T10:50:01;21.30;98.10
25346;DHT22;13300;51.032;3.710;2024-03-23T10:52:27;21.60;99.90
25346;DHT22;13300;51.032;3.710;2024-03-23T10:54:53;22.80;96.70
25346;DHT22;13300;51.032;3.710;2024-03-23T10:57:23;21.80;95.30
25346;DHT22;13300;51.032;3.710;2024-03-23T10:59:52;20.20;97.20
25346;DHT22;13300;51.032;3.710;2024-03-23T11:02:21;18.20;99.10
25346;DHT22;13300;51.032;3.710;2024-03-23T11:04:47;17.00;99.90
25346;DHT22;13300;51.032;3.710;2024-03-23T11:07:30;16.00;99.90
25346;DHT22;13300;51.032;3.710;2024-03-23T11:10:00;17.00;99.90
25346;DHT22;13300;51.032;3.710;2024-03-23T11:12:27;17.60;99.90
25346;DHT22;13300;51.032;3.710;2024-03-23T11:14:59;17.20;99.90
25346;DHT22;13300;51.032;3.710;2024-03-23T11:17:27;17.60;99.90
25346;DHT22;13300;51.032;3.710;2024-03-23T11:20:00;19.10;99.90
25346;DHT22;13300;51.032;3.710;2024-03-23T11:25:14;21.60;95.30
25346;DHT22;13300;51.032;3.710;2024-03-23T11:27:39;22.50;95.50
25346;DHT22;13300;51.032;3.710;2024-03-23T11:32:45;22.00;93.90
25346;DHT22;13300;51.032;3.710;2024-03-23T11:35:31;22.50;93.40
25346;DHT22;13300;51.032;3.710;2024-03-23T11:38:17;23.60;91.60
25346;DHT22;13300;51.032;3.710;2024-03-23T11:40:47;23.80;90.70
25346;DHT22;13300;51.032;3.710;2024-03-23T11:43:15;22.80;91.80
25346;DHT22;13300;51.032;3.710;2024-03-23T11:45:46;21.30;92.50
25346;DHT22;13300;51.032;3.710;2024-03-23T11:48:14;19.60;93.30
25346;DHT22;13300;51.032;3.710;2024-03-23T11:50:41;17.80;94.40
25346;DHT22;13300;51.032;3.710;2024-03-23T11:53:17;17.70;96.40
25346;DHT22;13300;51.032;3.710;2024-03-23T11:58:10;18.90;99.90
25346;DHT22;13300;51.032;3.710;2024-03-23T12:00:36;20.00;95.50
25346;DHT22;13300;51.032;3.710;2024-03-23T12:03:03;19.80;95.60
25346;DHT22;13300;51.032;3.710;2024-03-23T12:05:29;18.50;93.20
25346;DHT22;13300;51.032;3.710;2024-03-23T12:08:14;17.50;95.00
25346;DHT22;13300;51.032;3.710;2024-03-23T12:10:40;16.80;99.30
25346;DHT22;13300;51.032;3.710;2024-03-23T12:13:06;16.40;98.30
25346;DHT22;13300;51.032;3.710;2024-03-23T12:15:31;17.70;96.20
25346;DHT22;13300;51.032;3.710;2024-03-23T12:18:10;18.90;95.30
25346;DHT22;13300;51.032;3.710;2024-03-23T12:20:39;19.30;94.90
25346;DHT22;13300;51.032;3.710;2024-03-23T12:23:09;18.20;96.40
25346;DHT22;13300;51.032;3.710;2024-03-23T12:25:35;17.10;95.60
25346;DHT22;13300;51.032;3.710;2024-03-23T12:28:01;16.10;97.50
25346;DHT22;13300;51.032;3.710;2024-03-23T12:30:27;14.90;99.00
25346;DHT22;13300;51.032;3.710;2024-03-23T12:32:53;14.30;99.90
25346;DHT22;13300;51.032;3.710;2024-03-23T12:35:19;13.80;99.90
25346;DHT22;13300;51.032;3.710;2024-03-23T12:37:45;14.40;99.90
25346;DHT22;13300;51.032;3.710;2024-03-23T12:40:11;16.40;99.90
25346;DHT22;13300;51.032;3.710;2024-03-23T12:42:36;18.40;96.90
25346;DHT22;13300;51.032;3.710;2024-03-23T12:45:03;20.60;94.20
25346;DHT22;13300;51.032;3.710;2024-03-23T12:47:30;22.30;93.70
25346;DHT22;13300;51.032;3.710;2024-03-23T12:49:56;22.00;91.00
25346;DHT22;13300;51.032;3.710;2024-03-23T12:52:21;20.60;93.40
25346;DHT22;13300;51.032;3.710;2024-03-23T12:54:49;18.80;93.30
25346;DHT22;13300;51.032;3.710;2024-03-23T12:57:15;17.20;96.00
25346;DHT22;13300;51.032;3.710;2024-03-23T12:59:41;17.60;97.30
25346;DHT22;13300;51.032;3.710;2024-03-23T13:02:06;19.40;96.20
25346;DHT22;13300;51.032;3.710;2024-03-23T13:04:32;21.10;95.10
25346;DHT22;13300;51.032;3.710;2024-03-23T13:06:58;21.80;91.30
25346;DHT22;13300;51.032;3.710;2024-03-23T13:09:24;22.90;91.10
25346;DHT22;13300;51.032;3.710;2024-03-23T13:11:49;23.20;88.30
25346;DHT22;13300;51.032;3.710;2024-03-23T13:14:15;23.90;87.10
25346;DHT22;13300;51.032;3.710;2024-03-23T13:16:42;23.90;82.30
25346;DHT22;13300;51.032;3.710;2024-03-23T13:19:08;24.40;86.40
25346;DHT22;13300;51.032;3.710;2024-03-23T13:21:33;23.40;87.80
25346;DHT22;13300;51.032;3.710;2024-03-23T13:23:59;21.70;90.30
25346;DHT22;13300;51.032;3.710;2024-03-23T13:26:25;20.70;91.50
25346;DHT22;13300;51.032;3.710;2024-03-23T13:28:50;21.00;91.10
25346;DHT22;13300;51.032;3.710;2024-03-23T13:31:16;20.80;90.10
25346;DHT22;13300;51.032;3.710;2024-03-23T13:33:42;20.30;91.00
25346;DHT22;13300;51.032;3.710;2024-03-23T13:36:09;19.10;90.90
25346;DHT22;13300;51.032;3.710;2024-03-23T13:38:35;18.70;92.00
25346;DHT22;13300;51.032;3.710;2024-03-23T13:41:01;19.50;91.60
25346;DHT22;13300;51.032;3.710;2024-03-23T13:43:27;20.10;91.10
25346;DHT22;13300;51.032;3.710;2024-03-23T13:45:57;20.80;93.40
25346;DHT22;13300;51.032;3.710;2024-03-23T13:48:25;22.20;87.40
25346;DHT22;13300;51.032;3.710;2024-03-23T13:51:11;23.40;86.10
25346;DHT22;13300;51.032;3.710;2024-03-23T13:53:36;24.80;84.80
25346;DHT22;13300;51.032;3.710;2024-03-23T13:56:02;25.40;88.80
25346;DHT22;13300;51.032;3.710;2024-03-23T13:58:29;26.10;84.30
25346;DHT22;13300;51.032;3.710;2024-03-23T14:00:57;26.30;77.20
25346;DHT22;13300;51.032;3.710;2024-03-23T14:03:23;25.70;75.60
25346;DHT22;13300;51.032;3.710;2024-03-23T14:05:49;25.60;74.00
25346;DHT22;13300;51.032;3.710;2024-03-23T14:08:15;24.80;73.20
25346;DHT22;13300;51.032;3.710;2024-03-23T14:10:41;24.90;75.80
25346;DHT22;13300;51.032;3.710;2024-03-23T14:13:07;24.90;72.80
25346;DHT22;13300;51.032;3.710;2024-03-23T14:15:33;24.40;73.30
25346;DHT22;13300;51.032;3.710;2024-03-23T14:17:59;23.80;74.30
25346;DHT22;13300;51.032;3.710;2024-03-23T14:20:25;23.60;78.40
25346;DHT22;13300;51.032;3.710;2024-03-23T14:22:51;24.20;76.10
25346;DHT22;13300;51.032;3.710;2024-03-23T14:25:17;23.90;75.70
25346;DHT22;13300;51.032;3.710;2024-03-23T14:27:46;23.10;79.20
25346;DHT22;13300;51.032;3.710;2024-03-23T14:30:12;22.80;84.10
25346;DHT22;13300;51.032;3.710;2024-03-23T14:32:39;23.00;78.10
25346;DHT22;13300;51.032;3.710;2024-03-23T14:35:05;22.00;79.00
25346;DHT22;13300;51.032;3.710;2024-03-23T14:37:32;20.70;80.50
25346;DHT22;13300;51.032;3.710;2024-03-23T14:39:58;19.60;83.60
25346;DHT22;13300;51.032;3.710;2024-03-23T14:42:24;18.60;83.70
25346;DHT22;13300;51.032;3.710;2024-03-23T14:44:51;17.80;88.00
25346;DHT22;13300;51.032;3.710;2024-03-23T14:47:18;16.60;89.30
25346;DHT22;13300;51.032;3.710;2024-03-23T14:49:44;16.10;92.10
25346;DHT22;13300;51.032;3.710;2024-03-23T14:52:18;15.60;92.80
25346;DHT22;13300;51.032;3.710;2024-03-23T14:54:46;15.30;93.00
25346;DHT22;13300;51.032;3.710;2024-03-23T14:57:12;14.90;92.30
25346;DHT22;13300;51.032;3.710;2024-03-23T14:59:38;14.80;94.70
25346;DHT22;13300;51.032;3.710;2024-03-23T15:02:09;14.80;93.90
25346;DHT22;13300;51.032;3.710;2024-03-23T15:04:34;14.70;94.20
25346;DHT22;13300;51.032;3.710;2024-03-23T15:07:01;14.70;95.30
25346;DHT22;13300;51.032;3.710;2024-03-23T15:09:26;14.80;95.90
25346;DHT22;13300;51.032;3.710;2024-03-23T15:11:52;14.80;96.20
25346;DHT22;13300;51.032;3.710;2024-03-23T15:14:20;14.80;96.40
25346;DHT22;13300;51.032;3.710;2024-03-23T15:16:46;15.30;95.40
25346;DHT22;13300;51.032;3.710;2024-03-23T15:19:14;15.60;93.80
25346;DHT22;13300;51.032;3.710;2024-03-23T15:21:40;15.70;95.10
25346;DHT22;13300;51.032;3.710;2024-03-23T15:24:07;15.60;95.00
25346;DHT22;13300;51.032;3.710;2024-03-23T15:26:39;15.70;97.00
25346;DHT22;13300;51.032;3.710;2024-03-23T15:29:04;15.70;97.30
25346;DHT22;13300;51.032;3.710;2024-03-23T15:31:38;15.30;95.00
25346;DHT22;13300;51.032;3.710;2024-03-23T15:34:04;14.90;95.70
25346;DHT22;13300;51.032;3.710;2024-03-23T15:36:30;14.60;96.00
25346;DHT22;13300;51.032;3.710;2024-03-23T15:38:56;14.30;96.20
25346;DHT22;13300;51.032;3.710;2024-03-23T15:41:21;13.90;96.70
25346;DHT22;13300;51.032;3.710;2024-03-23T15:43:49;13.70;97.80
25346;DHT22;13300;51.032;3.710;2024-03-23T15:46:14;13.50;96.70
25346;DHT22;13300;51.032;3.710;2024-03-23T15:48:41;13.10;98.00
25346;DHT22;13300;51.032;3.710;2024-03-23T15:51:12;13.00;99.00
25346;DHT22;13300;51.032;3.710;2024-03-23T15:53:38;12.80;98.40
25346;DHT22;13300;51.032;3.710;2024-03-23T15:56:04;12.40;99.90
25346;DHT22;13300;51.032;3.710;2024-03-23T15:58:31;12.30;99.90
25346;DHT22;13300;51.032;3.710;2024-03-23T16:01:04;12.30;99.90
25346;DHT22;13300;51.032;3.710;2024-03-23T16:03:32;12.40;99.90
25346;DHT22;13300;51.032;3.710;2024-03-23T16:06:04;12.30;99.90
25346;DHT22;13300;51.032;3.710;2024-03-23T16:08:30;12.10;99.90
25346;DHT22;13300;51.032;3.710;2024-03-23T16:11:14;11.90;99.90
25346;DHT22;13300;51.032;3.710;2024-03-23T16:13:40;11.70;99.90
25346;DHT22;13300;51.032;3.710;2024-03-23T16:16:06;11.60;99.90
25346;DHT22;13300;51.032;3.710;2024-03-23T16:18:33;11.30;99.90
25346;DHT22;13300;51.032;3.710;2024-03-23T16:21:01;11.10;99.90
25346;DHT22;13300;51.032;3.710;2024-03-23T16:23:28;10.90;99.90
25346;DHT22;13300;51.032;3.710;2024-03-23T16:25:55;10.60;99.90
25346;DHT22;13300;51.032;3.710;2024-03-23T16:28:28;10.20;99.90
25346;DHT22;13300;51.032;3.710;2024-03-23T16:30:59;9.90;99.90
25346;DHT22;13300;51.032;3.710;2024-03-23T16:33:25;9.70;99.90
25346;DHT22;13300;51.032;3.710;2024-03-23T16:38:36;9.20;99.90
25346;DHT22;13300;51.032;3.710;2024-03-23T16:41:10;9.00;99.90
25346;DHT22;13300;51.032;3.710;2024-03-23T16:43:38;8.90;99.90